createdAt,value
2019-03-10T00:02:28.443Z,2.10
2019-03-10T00:07:35.783Z,2.05
2019-03-10T00:12:55.916Z,2.02
2019-03-10T00:17:56.237Z,2.14
2019-03-10T00:22:43.631Z,2.28
2019-03-10T00:28:03.882Z,2.23
2019-03-10T00:33:03.867Z,2.19
2019-03-10T00:38:05.197Z,2.13
2019-03-10T00:42:52.426Z,1.82
2019-03-10T00:48:12.771Z,2.15
2019-03-10T00:53:00.028Z,2.06
2019-03-10T00:58:08.234Z,2.18
2019-03-10T01:03:28.191Z,2.23
2019-03-10T01:08:17.299Z,2.10
2019-03-10T01:13:38.545Z,2.59
2019-03-10T01:18:38.807Z,2.75
2019-03-10T01:23:25.950Z,2.45
2019-03-10T01:28:36.109Z,2.92
2019-03-10T01:33:56.392Z,3.04
2019-03-10T01:38:43.810Z,3.51
2019-03-10T01:43:50.970Z,2.41
2019-03-10T01:48:58.365Z,3.02
2019-03-10T01:54:06.730Z,2.42
2019-03-10T02:09:15.732Z,2.84
2019-03-10T02:14:22.960Z,2.56
2019-03-10T02:19:30.181Z,2.92
2019-03-10T02:24:38.413Z,2.92
2019-03-10T02:29:45.928Z,2.69
2019-03-10T02:34:53.163Z,3.64
2019-03-10T02:40:00.722Z,2.91
2019-03-10T02:45:08.414Z,2.62
2019-03-10T02:50:15.755Z,2.67
2019-03-10T02:55:24.165Z,2.67
2019-03-10T03:00:31.499Z,2.92
2019-03-10T03:10:40.765Z,2.82
2019-03-10T03:15:47.895Z,2.76
2019-03-10T03:21:08.964Z,3.22
2019-03-10T03:26:09.915Z,2.87
2019-03-10T03:30:58.169Z,2.69
2019-03-10T03:36:05.265Z,2.99
2019-03-10T03:41:26.476Z,2.91
2019-03-10T03:46:14.560Z,2.99
2019-03-10T03:51:21.848Z,2.90
2019-03-10T03:56:30.055Z,2.36
2019-03-10T04:01:37.277Z,2.58
2019-03-10T04:06:45.496Z,2.99
2019-03-10T04:11:52.936Z,2.46
2019-03-10T04:17:00.041Z,2.05
2019-03-10T04:22:08.374Z,1.87
2019-03-10T04:27:15.608Z,2.06
2019-03-10T04:37:30.629Z,1.83
2019-03-10T04:42:37.998Z,1.84
2019-03-10T04:47:58.158Z,2.48
2019-03-10T04:52:46.113Z,2.24
2019-03-10T04:58:07.229Z,3.01
2019-03-10T05:02:55.215Z,3.66
2019-03-10T05:08:03.511Z,3.44
2019-03-10T05:13:10.716Z,4.74
2019-03-10T05:18:18.773Z,4.93
2019-03-10T05:23:39.901Z,5.99
2019-03-10T05:28:28.124Z,5.45
2019-03-10T05:33:48.434Z,5.25
2019-03-10T05:38:35.519Z,5.25
2019-03-10T05:43:43.738Z,4.47
2019-03-10T05:48:51.920Z,4.10
2019-03-10T05:53:59.439Z,3.93
2019-03-10T06:04:24.644Z,2.88
2019-03-10T06:09:11.726Z,2.92
2019-03-10T06:14:20.109Z,3.69
2019-03-10T06:19:27.303Z,4.16
2019-03-10T06:24:47.874Z,3.76
2019-03-10T06:29:47.843Z,3.34
2019-03-10T06:34:36.175Z,3.89
2019-03-10T06:39:43.312Z,3.93
2019-03-10T06:44:52.051Z,3.89
2019-03-10T06:50:12.512Z,3.43
2019-03-10T06:54:59.558Z,3.61
2019-03-10T07:00:06.808Z,3.29
2019-03-10T07:05:13.999Z,3.36
2019-03-10T07:10:22.191Z,3.71
2019-03-10T07:15:42.471Z,3.83
2019-03-10T07:20:30.865Z,4.16
2019-03-10T07:25:38.201Z,4.07
2019-03-10T07:30:45.414Z,4.45
2019-03-10T07:35:53.673Z,3.75
2019-03-10T07:41:13.810Z,3.99
2019-03-10T07:46:02.189Z,4.11
2019-03-10T07:51:10.245Z,4.12
2019-03-10T07:56:31.388Z,4.16
2019-03-10T08:01:18.486Z,4.67
2019-03-10T08:06:26.825Z,3.95
2019-03-10T08:11:46.958Z,3.87
2019-03-10T08:16:47.236Z,3.38
2019-03-10T08:21:47.382Z,3.18
2019-03-10T08:26:47.443Z,2.92
2019-03-10T08:31:35.643Z,3.11
2019-03-10T08:36:55.877Z,3.86
2019-03-10T08:41:42.919Z,4.16
2019-03-10T08:46:51.007Z,4.59
2019-03-10T08:51:59.187Z,4.06
2019-03-10T08:57:06.895Z,4.20
2019-03-10T09:12:22.068Z,4.80
2019-03-10T09:17:42.477Z,3.27
2019-03-10T09:27:43.651Z,2.25
2019-03-10T09:32:44.814Z,3.97
2019-03-10T09:37:32.963Z,5.19
2019-03-10T09:42:41.667Z,3.80
2019-03-10T09:48:01.909Z,3.48
2019-03-10T09:53:01.865Z,3.37
2019-03-10T09:57:50.118Z,2.97
2019-03-10T10:02:58.338Z,2.41
2019-03-10T10:13:13.020Z,2.18
2019-03-10T10:18:20.212Z,1.07
2019-03-10T10:23:28.282Z,1.02
2019-03-10T10:28:36.706Z,1.04
2019-03-10T10:33:45.925Z,1.28
2019-03-10T10:39:06.284Z,0.89
2019-03-10T10:43:54.500Z,0.97
2019-03-10T10:49:01.835Z,1.59
2019-03-10T10:54:21.790Z,1.49
2019-03-10T10:59:10.094Z,1.45
2019-03-10T11:04:17.397Z,1.43
2019-03-10T11:09:37.457Z,1.40
2019-03-10T11:14:25.649Z,1.35
2019-03-10T11:19:33.029Z,1.56
2019-03-10T11:24:40.291Z,1.71
2019-03-10T11:29:51.575Z,1.84
2019-03-10T11:35:02.608Z,1.19
2019-03-10T11:40:02.808Z,1.57
2019-03-10T11:41:10.496Z,2.25
2019-03-10T11:46:17.606Z,1.46
2019-03-10T11:51:26.103Z,1.55
2019-03-10T11:56:47.161Z,1.88
2019-03-10T12:01:35.314Z,1.41
2019-03-10T12:06:57.519Z,2.17
2019-03-10T12:11:44.246Z,1.87
2019-03-10T12:16:51.539Z,1.93
2019-03-10T12:21:59.652Z,1.61
2019-03-10T12:27:06.761Z,1.64
2019-03-10T12:32:27.932Z,1.97
2019-03-10T12:37:27.920Z,1.94
2019-03-10T12:42:16.306Z,1.90
2019-03-10T12:47:23.556Z,1.31
2019-03-10T12:52:30.823Z,1.95
2019-03-10T12:57:39.070Z,1.67
2019-03-10T13:02:59.608Z,1.21
2019-03-10T13:07:46.797Z,1.64
2019-03-10T13:19:16.414Z,1.44
2019-03-10T13:24:03.883Z,1.23
2019-03-10T13:34:27.736Z,1.72
2019-03-10T13:39:16.098Z,1.43
2019-03-10T13:44:24.841Z,1.29
2019-03-10T13:49:30.579Z,1.64
2019-03-10T13:54:39.033Z,2.00
2019-03-10T14:00:00.129Z,1.86
2019-03-10T14:04:47.624Z,1.47
2019-03-10T14:09:54.887Z,1.68
2019-03-10T14:15:15.106Z,1.43
2019-03-10T14:20:03.232Z,1.56
2019-03-10T14:25:11.513Z,1.72
2019-03-10T14:30:19.580Z,1.27
2019-03-10T14:35:30.166Z,1.56
2019-03-10T14:40:50.214Z,1.35
2019-03-10T14:45:51.296Z,1.25
2019-03-10T14:50:39.535Z,1.34
2019-03-10T14:55:59.679Z,1.38
2019-03-10T15:00:47.872Z,1.34
2019-03-10T15:05:55.259Z,1.59
2019-03-10T15:11:03.535Z,1.58
2019-03-10T15:21:27.240Z,1.64
2019-03-10T15:26:27.870Z,1.41
2019-03-10T15:31:15.841Z,1.31
2019-03-10T15:36:24.379Z,1.36
2019-03-10T15:41:44.699Z,1.99
2019-03-10T15:46:45.252Z,1.83
2019-03-10T15:51:45.360Z,1.66
2019-03-10T15:56:46.864Z,1.70
2019-03-10T16:01:47.070Z,1.64
2019-03-10T16:11:51.128Z,2.06
2019-03-10T16:16:51.402Z,1.33
2019-03-10T16:21:52.549Z,2.06
2019-03-10T16:26:52.918Z,1.34
2019-03-10T16:31:42.046Z,1.59
2019-03-10T16:36:49.607Z,1.50
2019-03-10T16:42:10.722Z,1.99
2019-03-10T16:47:12.530Z,1.82
2019-03-10T16:52:12.667Z,1.40
2019-03-10T16:57:12.840Z,1.66
2019-03-10T17:02:13.121Z,1.53
2019-03-10T17:07:14.399Z,0.83
2019-03-10T17:17:18.551Z,0.84
2019-03-10T17:22:06.778Z,0.94
2019-03-10T17:27:27.087Z,1.02
2019-03-10T17:32:14.313Z,0.81
2019-03-10T17:37:21.824Z,1.04
2019-03-10T17:42:42.791Z,1.35
2019-03-10T17:47:30.982Z,0.74
2019-03-10T17:52:51.935Z,1.24
2019-03-10T17:57:40.302Z,1.31
2019-03-10T18:02:47.435Z,1.15
2019-03-10T18:07:55.941Z,1.04
2019-03-10T18:18:19.891Z,1.09
2019-03-10T18:23:20.864Z,1.39
2019-03-10T18:28:21.151Z,1.01
2019-03-10T18:38:12.327Z,0.85
2019-03-10T18:43:33.458Z,0.98
2019-03-10T18:48:20.786Z,1.07
2019-03-10T18:53:40.796Z,1.28
2019-03-10T18:58:29.296Z,1.24
2019-03-10T19:03:49.595Z,1.19
2019-03-10T19:08:50.631Z,1.19
2019-03-10T19:13:51.689Z,1.11
2019-03-10T19:18:38.826Z,1.30
2019-03-10T19:23:47.052Z,1.19
2019-03-10T19:29:07.332Z,1.09
2019-03-10T19:34:07.500Z,1.72
2019-03-10T19:39:07.786Z,1.53
2019-03-10T19:44:07.774Z,1.62
2019-03-10T19:48:56.079Z,1.53
2019-03-10T19:54:17.206Z,1.30
2019-03-10T19:59:04.565Z,1.94
2019-03-10T20:04:12.682Z,2.36
2019-03-10T20:09:21.061Z,2.14
2019-03-10T20:14:41.037Z,1.98
2019-03-10T20:19:29.353Z,1.81
2019-03-10T20:24:50.460Z,1.36
2019-03-10T20:34:43.730Z,1.22
2019-03-10T20:40:04.077Z,2.11
2019-03-10T20:45:04.193Z,1.49
2019-03-10T20:50:04.314Z,1.41
2019-03-10T20:54:52.919Z,1.44
2019-03-10T21:00:00.967Z,1.54
2019-03-10T21:05:20.512Z,2.01
2019-03-10T21:10:07.771Z,2.12
2019-03-10T21:15:15.956Z,2.11
2019-03-10T21:20:23.910Z,1.61
2019-03-10T21:25:45.049Z,1.76
2019-03-10T21:30:45.222Z,2.15
2019-03-10T21:35:46.320Z,1.86
2019-03-10T21:40:33.524Z,1.50
2019-03-10T21:45:54.518Z,1.56
2019-03-10T21:50:55.746Z,1.61
2019-03-10T21:55:55.866Z,1.99
2019-03-10T22:00:56.115Z,1.16
2019-03-10T22:05:56.257Z,1.33
2019-03-10T22:10:56.430Z,1.06
2019-03-10T22:15:43.510Z,1.78
2019-03-10T22:20:51.788Z,1.75
2019-03-10T22:26:00.291Z,1.38
2019-03-10T22:31:20.532Z,1.25
2019-03-10T22:36:08.766Z,1.64
2019-03-10T22:41:29.207Z,1.33
2019-03-10T22:46:30.309Z,1.69
2019-03-10T22:51:31.366Z,1.61
2019-03-10T22:56:32.327Z,1.96
2019-03-10T23:01:33.403Z,1.57
2019-03-10T23:06:34.443Z,2.58
2019-03-10T23:11:22.844Z,2.03
2019-03-10T23:16:30.076Z,1.65
2019-03-10T23:26:58.094Z,1.81
2019-03-10T23:31:58.355Z,1.97
2019-03-10T23:36:58.472Z,1.96
2019-03-10T23:41:45.913Z,2.07
2019-03-10T23:46:53.872Z,1.88
2019-03-10T23:52:02.003Z,1.69
2019-03-10T23:57:22.936Z,1.61
